KUVA/UVA METAR and TAF weather

Enter ICAO airport designator
Station Type Date Time Source
KUVA METAR 2021/02/28 04:15 UTC NOAA

KUVA 280415Z AUTO 10008KT 7SM SCT040 20/20 A2986 RMK AO2 T02010200


Station Type Date Time Source
KUVA Decoded METAR 2021/02/28 04:15 UTC NOAA

Uvalde, Garner Field Airport, TX, United States (KUVA) 29-12-40N 099-44-36W
Feb 27, 2021 - 11:15 PM EST / 2021.02.28 0415 UTC
Wind: from the E (100 degrees) at 9 MPH (8 KT):0
Visibility: 7 mile(s):0
Sky conditions: partly cloudy
Temperature: 68.2 F (20.1 C)
Dew Point: 68.0 F (20.0 C)
Relative Humidity: 99%
Pressure (altimeter): 29.86 in. Hg (1011 hPa)
ob: KUVA 280415Z AUTO 10008KT 7SM SCT040 20/20 A2986 RMK AO2 T02010200
cycle: 4

Station Type Date Time Source
KUVA TAF UTC NOAA

Error!

Example: see airport list